Time;durP1;ratioP1;P1;durP2;ratioP2;P2;SDS_P1;SDS_P2;PMS_P1;PMS_P2;Temp;Humidity;BMP_temperature;BMP_pressure;BME280_temperature;BME280_humidity;BME280_pressure;Samples;Min_cycle;Max_cycle;Signal;HPM_P1;HPM_P2
2021/10/23 00:00:43;;;;;;;77.22;26.52;;;;;;;10.99;100.00;100851.59;1754389;81;21073;-82
2021/10/23 00:03:09;;;;;;;68.05;25.57;;;;;;;11.05;100.00;100855.96;1754183;81;20978;-82
2021/10/23 00:05:36;;;;;;;70.37;27.48;;;;;;;11.09;100.00;100860.59;1754082;81;20993;-83
2021/10/23 00:08:02;;;;;;;66.90;26.35;;;;;;;11.13;100.00;100854.15;1754045;81;20998;-82
2021/10/23 00:10:28;;;;;;;72.27;26.70;;;;;;;11.18;100.00;100841.22;1754411;81;21009;-81
2021/10/23 00:12:54;;;;;;;66.87;26.85;;;;;;;11.20;100.00;100839.90;1754033;80;21141;-86
2021/10/23 00:15:20;;;;;;;68.47;26.30;;;;;;;11.22;100.00;100844.52;1754385;81;21641;-82
2021/10/23 00:17:46;;;;;;;66.22;25.52;;;;;;;11.25;100.00;100845.88;1754371;81;20894;-82
2021/10/23 00:20:13;;;;;;;63.73;25.90;;;;;;;11.26;100.00;100842.10;1754274;81;20954;-82
2021/10/23 00:22:39;;;;;;;78.12;26.23;;;;;;;11.24;100.00;100829.43;1754408;81;20974;-85
2021/10/23 00:25:06;;;;;;;65.65;25.30;;;;;;;11.22;100.00;100835.06;1754601;81;21984;-82
2021/10/23 00:27:32;;;;;;;64.35;24.80;;;;;;;11.19;100.00;100830.19;1754252;81;21021;-82
2021/10/23 00:29:59;;;;;;;71.57;26.10;;;;;;;11.14;100.00;100832.84;1754441;81;20890;-81
2021/10/23 00:32:27;;;;;;;73.15;26.25;;;;;;;11.05;100.00;100824.41;1753855;81;20985;-88
2021/10/23 00:34:53;;;;;;;66.92;25.50;;;;;;;11.00;100.00;100825.73;1753378;81;21597;-81
2021/10/23 00:37:19;;;;;;;68.28;25.23;;;;;;;10.88;100.00;100812.42;1751443;82;21065;-81
2021/10/23 00:39:45;;;;;;;72.27;25.75;;;;;;;10.79;100.00;100805.84;1751270;82;20882;-87
2021/10/23 00:42:12;;;;;;;70.75;26.50;;;;;;;10.74;100.00;100810.40;1751107;80;20970;-82
2021/10/23 00:44:41;;;;;;;63.10;24.37;;;;;;;10.64;100.00;100805.70;1750945;82;20999;-81
2021/10/23 00:47:19;;;;;;;65.03;25.65;;;;;;;10.54;100.00;100792.14;1750935;82;21061;-80
2021/10/23 00:49:51;;;;;;;68.72;25.55;;;;;;;10.46;100.00;100790.17;1751118;81;21115;-82
2021/10/23 00:52:20;;;;;;;66.00;24.25;;;;;;;10.39;100.00;100801.70;1690847;82;21046;-82
2021/10/23 00:54:46;;;;;;;65.35;25.68;;;;;;;10.31;100.00;100804.02;1690600;82;22189;-82
2021/10/23 00:57:12;;;;;;;72.78;26.62;;;;;;;10.20;100.00;100797.67;1691271;82;21034;-82
2021/10/23 00:59:39;;;;;;;68.78;25.62;;;;;;;10.14;100.00;100799.48;1690734;82;21062;-86
2021/10/23 01:02:05;;;;;;;64.87;24.60;;;;;;;10.07;100.00;100797.53;1691082;82;21101;-82
2021/10/23 01:04:32;;;;;;;76.35;24.57;;;;;;;9.97;100.00;100797.39;1690984;82;21018;-81
2021/10/23 01:06:58;;;;;;;71.62;25.62;;;;;;;9.86;100.00;100801.05;1691023;82;21648;-82
2021/10/23 01:09:24;;;;;;;74.77;26.60;;;;;;;9.73;100.00;100803.55;1691010;82;21035;-82
2021/10/23 01:11:52;;;;;;;69.05;25.32;;;;;;;9.60;100.00;100804.73;1691182;82;21045;-82
2021/10/23 01:14:22;;;;;;;68.90;26.10;;;;;;;9.48;100.00;100801.34;1691075;82;21015;-81
2021/10/23 01:16:52;;;;;;;68.62;25.90;;;;;;;9.40;100.00;100810.63;1690994;82;21043;-82
2021/10/23 01:19:19;;;;;;;66.28;24.57;;;;;;;9.31;100.00;100805.38;1690957;82;21002;-81
2021/10/23 01:21:48;;;;;;;71.65;25.97;;;;;;;9.26;100.00;100807.98;1690898;82;21689;-83
2021/10/23 01:24:16;;;;;;;63.20;25.95;;;;;;;9.22;100.00;100813.05;1691028;82;21080;-82
2021/10/23 01:26:43;;;;;;;69.70;26.50;;;;;;;9.17;100.00;100810.80;1690981;83;21574;-82
2021/10/23 01:29:12;;;;;;;66.22;26.30;;;;;;;9.12;100.00;100814.25;1691108;82;21146;-81
2021/10/23 01:31:38;;;;;;;65.22;26.42;;;;;;;9.06;100.00;100813.34;1691187;82;21205;-82
2021/10/23 01:34:19;;;;;;;64.45;25.15;;;;;;;8.97;100.00;100801.38;1690999;82;21538;-83
2021/10/23 01:36:55;;;;;;;65.20;24.90;;;;;;;8.97;100.00;100808.59;1690814;82;21101;-82
2021/10/23 01:39:23;;;;;;;67.47;25.88;;;;;;;8.91;100.00;100807.70;1689176;82;21326;-82
2021/10/23 01:41:50;;;;;;;73.95;27.25;;;;;;;8.88;100.00;100808.19;1690637;82;21089;-82
2021/10/23 01:44:17;;;;;;;65.57;24.00;;;;;;;8.84;100.00;100805.70;1691156;82;21107;-81
2021/10/23 01:46:44;;;;;;;75.57;24.35;;;;;;;8.80;100.00;100807.27;1691017;82;20967;-82
2021/10/23 01:49:10;;;;;;;66.50;25.60;;;;;;;8.78;100.00;100810.71;1723390;82;21041;-82
2021/10/23 01:51:38;;;;;;;69.37;25.35;;;;;;;8.77;100.00;100810.44;1751351;81;21117;-79
2021/10/23 01:54:10;;;;;;;67.92;24.63;;;;;;;8.80;100.00;100807.27;1751035;82;20957;-83
2021/10/23 01:56:40;;;;;;;57.35;24.00;;;;;;;8.81;100.00;100808.88;1751186;82;21045;-80
2021/10/23 01:59:07;;;;;;;66.62;24.90;;;;;;;8.83;100.00;100811.62;1751001;82;21623;-84
2021/10/23 02:01:34;;;;;;;59.98;22.73;;;;;;;8.85;100.00;100813.55;1751156;82;21025;-81
2021/10/23 02:04:00;;;;;;;56.60;22.93;;;;;;;8.90;100.00;100812.80;1751357;82;22118;-81
2021/10/23 02:06:26;;;;;;;61.37;22.30;;;;;;;8.92;100.00;100811.23;1751410;80;20970;-80
2021/10/23 02:08:53;;;;;;;62.58;23.92;;;;;;;8.93;100.00;100805.59;1751481;81;20985;-82
2021/10/23 02:11:19;;;;;;;53.52;22.82;;;;;;;8.95;100.00;100805.36;1751718;82;20998;-82
2021/10/23 02:13:46;;;;;;;59.80;23.67;;;;;;;9.01;100.00;100802.50;1751495;82;20997;-80
2021/10/23 02:16:12;;;;;;;54.58;22.05;;;;;;;9.05;100.00;100810.89;1751368;80;21893;-82
2021/10/23 02:18:39;;;;;;;60.17;23.52;;;;;;;9.06;100.00;100805.82;1751211;82;20945;-88
2021/10/23 02:21:08;;;;;;;58.95;22.13;;;;;;;9.10;100.00;100806.95;1751330;82;20930;-87
2021/10/23 02:23:35;;;;;;;60.70;22.07;;;;;;;9.11;100.00;100808.56;1751016;80;20979;-83
2021/10/23 02:26:01;;;;;;;62.03;23.00;;;;;;;9.16;100.00;100813.22;1732193;82;21010;-82
2021/10/23 02:28:27;;;;;;;57.13;21.97;;;;;;;9.18;100.00;100815.95;1751100;80;21942;-81
2021/10/23 02:30:54;;;;;;;53.05;21.12;;;;;;;9.23;100.00;100816.55;1751245;82;21569;-82
2021/10/23 02:33:20;;;;;;;58.13;21.55;;;;;;;9.28;100.00;100817.98;1751192;82;21008;-82
2021/10/23 02:35:45;;;;;;;55.10;21.45;;;;;;;9.35;100.00;100810.55;1752500;80;20981;-86
2021/10/23 02:38:11;;;;;;;61.83;21.77;;;;;;;9.39;100.00;100821.11;1753900;81;21635;-82
2021/10/23 02:40:39;;;;;;;55.35;20.48;;;;;;;9.45;100.00;100823.35;1754035;81;21071;-82
2021/10/23 02:43:05;;;;;;;57.53;21.55;;;;;;;9.50;100.00;100826.09;1754165;81;21076;-87
2021/10/23 02:45:31;;;;;;;61.23;22.15;;;;;;;9.58;100.00;100825.68;1754318;81;21052;-82
2021/10/23 02:47:58;;;;;;;56.63;20.75;;;;;;;9.64;100.00;100820.66;1754188;81;21025;-82
2021/10/23 02:50:24;;;;;;;61.65;20.97;;;;;;;9.72;100.00;100822.11;1754213;81;21037;-83
2021/10/23 02:52:49;;;;;;;50.98;20.25;;;;;;;9.78;100.00;100823.81;1754288;81;20937;-82
2021/10/23 02:55:16;;;;;;;51.50;20.62;;;;;;;9.85;100.00;100826.31;1753987;81;20897;-80
2021/10/23 02:57:42;;;;;;;54.30;20.23;;;;;;;9.89;100.00;100826.92;1753905;81;21080;-82
2021/10/23 03:00:10;;;;;;;55.73;20.77;;;;;;;9.94;100.00;100832.38;1754450;81;21567;-82
2021/10/23 03:02:36;;;;;;;58.45;20.60;;;;;;;10.00;100.00;100831.92;1754263;81;20993;-81
2021/10/23 03:05:03;;;;;;;52.93;19.95;;;;;;;10.03;100.00;100823.34;1753946;81;21092;-82
2021/10/23 03:07:30;;;;;;;49.53;19.30;;;;;;;10.09;100.00;100820.16;1753919;81;20978;-82
2021/10/23 03:09:57;;;;;;;48.75;18.80;;;;;;;10.13;100.00;100814.56;1754452;81;21033;-82
2021/10/23 03:12:23;;;;;;;56.55;20.43;;;;;;;10.16;100.00;100807.33;1754642;81;21037;-83
2021/10/23 03:14:50;;;;;;;56.30;21.35;;;;;;;10.17;100.00;100805.71;1754057;81;21470;-81
2021/10/23 03:17:16;;;;;;;55.40;20.97;;;;;;;10.21;100.00;100809.55;1754144;81;21157;-80
2021/10/23 03:19:42;;;;;;;54.55;21.10;;;;;;;10.25;100.00;100808.50;1754395;81;21040;-82
2021/10/23 03:22:08;;;;;;;51.37;20.68;;;;;;;10.27;100.00;100798.33;1754390;81;20983;-82
2021/10/23 03:24:34;;;;;;;57.53;21.77;;;;;;;10.28;100.00;100795.91;1736883;80;20838;-83
2021/10/23 03:27:00;;;;;;;53.70;22.42;;;;;;;10.31;100.00;100797.29;1737224;81;20906;-82
2021/10/23 03:29:26;;;;;;;57.33;21.35;;;;;;;10.33;100.00;100791.94;1754283;81;21974;-81
2021/10/23 03:31:52;;;;;;;55.85;21.27;;;;;;;10.35;100.00;100802.44;1754344;81;20885;-83
2021/10/23 03:34:17;;;;;;;56.63;21.75;;;;;;;10.38;100.00;100797.89;1754508;81;20865;-82
2021/10/23 03:36:43;;;;;;;54.23;21.00;;;;;;;10.42;100.00;100805.77;1751994;81;20938;-82
2021/10/23 03:39:10;;;;;;;58.60;21.48;;;;;;;10.43;100.00;100804.69;1751336;82;20859;-83
2021/10/23 03:41:37;;;;;;;57.08;21.37;;;;;;;10.45;100.00;100798.52;1751310;81;21173;-88
2021/10/23 03:44:06;;;;;;;57.15;20.88;;;;;;;10.45;100.00;100801.22;1750941;82;20954;-83
2021/10/23 03:46:32;;;;;;;58.80;21.62;;;;;;;10.46;100.00;100802.30;1751149;82;21021;-82
2021/10/23 03:48:58;;;;;;;54.75;22.17;;;;;;;10.49;100.00;100797.47;1748121;82;20940;-82
2021/10/23 03:51:24;;;;;;;52.00;21.50;;;;;;;10.50;100.00;100786.45;1751313;81;21010;-83
2021/10/23 03:53:50;;;;;;;55.25;21.30;;;;;;;10.53;100.00;100789.98;1751369;82;21350;-83
2021/10/23 03:56:15;;;;;;;51.55;21.48;;;;;;;10.56;100.00;100791.34;1750942;82;21023;-82
2021/10/23 03:58:41;;;;;;;57.30;21.70;;;;;;;10.58;100.00;100793.25;1751507;80;20945;-83
2021/10/23 04:01:07;;;;;;;60.98;23.10;;;;;;;10.62;100.00;100790.34;1751474;80;20870;-82
2021/10/23 04:03:33;;;;;;;56.88;22.62;;;;;;;10.63;100.00;100787.38;1751612;82;21063;-82
2021/10/23 04:05:59;;;;;;;56.90;23.38;;;;;;;10.66;100.00;100794.14;1751508;82;21334;-83
2021/10/23 04:08:25;;;;;;;58.00;21.95;;;;;;;10.69;100.00;100793.63;1751018;81;20901;-86
2021/10/23 04:10:51;;;;;;;53.50;22.17;;;;;;;10.70;100.00;100800.64;1751429;81;21024;-83
2021/10/23 04:13:17;;;;;;;54.83;22.22;;;;;;;10.72;100.00;100803.09;1751517;82;21269;-83
2021/10/23 04:15:43;;;;;;;56.48;22.52;;;;;;;10.74;100.00;100807.70;1752268;81;20921;-83
2021/10/23 04:18:09;;;;;;;57.10;22.67;;;;;;;10.76;100.00;100807.70;1751271;82;21759;-83
2021/10/23 04:20:35;;;;;;;61.35;24.18;;;;;;;10.78;100.00;100815.01;1751398;81;20945;-88
2021/10/23 04:23:01;;;;;;;59.18;23.50;;;;;;;10.79;100.00;100815.27;1751134;80;20910;-84
2021/10/23 04:25:27;;;;;;;59.03;23.55;;;;;;;10.81;100.00;100816.38;1751392;81;21020;-81
2021/10/23 04:27:52;;;;;;;55.08;22.42;;;;;;;10.82;100.00;100817.45;1751291;81;20899;-83
2021/10/23 04:30:18;;;;;;;65.25;24.85;;;;;;;10.84;100.00;100821.27;1751019;82;21536;-82
2021/10/23 04:32:44;;;;;;;54.95;23.30;;;;;;;10.87;100.00;100828.84;1751047;81;20890;-83
2021/10/23 04:35:10;;;;;;;64.55;24.77;;;;;;;10.90;100.00;100838.56;1751325;82;20843;-83
2021/10/23 04:37:36;;;;;;;57.78;24.35;;;;;;;10.92;100.00;100836.98;1753620;81;20894;-83
2021/10/23 04:40:02;;;;;;;66.28;25.97;;;;;;;10.95;100.00;100846.45;1751307;81;20875;-83
2021/10/23 04:42:28;;;;;;;74.87;27.42;;;;;;;10.99;100.00;100848.89;1754352;81;21039;-83
2021/10/23 04:44:54;;;;;;;75.25;29.92;;;;;;;11.05;100.00;100845.17;1754013;81;20934;-84
2021/10/23 04:47:20;;;;;;;78.20;29.98;;;;;;;11.10;100.00;100843.33;1751396;81;20870;-83
2021/10/23 04:49:46;;;;;;;79.75;30.92;;;;;;;11.16;100.00;100850.94;1754502;81;20867;-81
2021/10/23 04:52:12;;;;;;;73.87;30.75;;;;;;;11.22;100.00;100863.39;1754019;81;21068;-83
2021/10/23 04:54:38;;;;;;;79.07;31.93;;;;;;;11.27;100.00;100866.14;1754348;81;21157;-84
2021/10/23 04:57:04;;;;;;;85.60;32.48;;;;;;;11.35;100.00;100881.02;1754560;81;20874;-82
2021/10/23 04:59:29;;;;;;;90.67;34.08;;;;;;;11.41;100.00;100880.53;1754228;81;20901;-83
2021/10/23 05:01:55;;;;;;;93.12;34.80;;;;;;;11.47;100.00;100880.84;1754228;81;20894;-84
2021/10/23 05:04:21;;;;;;;90.77;33.53;;;;;;;11.56;100.00;100892.81;1754295;81;21651;-82
2021/10/23 05:06:47;;;;;;;88.67;33.48;;;;;;;11.64;100.00;100896.36;1754166;81;21750;-81
2021/10/23 05:09:13;;;;;;;88.47;33.00;;;;;;;11.75;100.00;100902.65;1751694;81;20956;-83
2021/10/23 05:11:38;;;;;;;88.45;34.35;;;;;;;11.85;100.00;100902.73;1732396;82;20948;-87
2021/10/23 05:14:05;;;;;;;84.13;32.93;;;;;;;11.97;100.00;100912.83;1751369;82;21554;-83
2021/10/23 05:16:30;;;;;;;87.25;32.03;;;;;;;12.09;100.00;100918.02;1751290;82;21027;-84
2021/10/23 05:18:56;;;;;;;77.50;30.30;;;;;;;12.17;100.00;100915.34;1751406;82;21152;-84
2021/10/23 05:21:22;;;;;;;72.78;30.27;;;;;;;12.20;100.00;100919.69;1751057;82;20919;-84
2021/10/23 05:23:51;;;;;;;73.42;29.85;;;;;;;12.24;100.00;100916.75;1751238;82;21001;-83
2021/10/23 05:26:17;;;;;;;73.75;29.63;;;;;;;12.30;100.00;100919.48;1750933;81;20980;-82
2021/10/23 05:28:42;;;;;;;68.25;27.07;;;;;;;12.36;100.00;100933.30;1751343;82;21047;-83
2021/10/23 05:31:08;;;;;;;71.57;27.85;;;;;;;12.39;100.00;100940.33;1751258;82;21158;-82
2021/10/23 05:33:34;;;;;;;68.00;27.15;;;;;;;12.44;100.00;100942.23;1751211;82;20988;-83
2021/10/23 05:36:00;;;;;;;65.67;25.88;;;;;;;12.46;100.00;100939.53;1751059;80;21051;-83
2021/10/23 05:38:26;;;;;;;66.35;26.27;;;;;;;12.50;100.00;100935.80;1751245;82;20877;-81
2021/10/23 05:40:52;;;;;;;69.95;25.55;;;;;;;12.55;100.00;100937.69;1751093;81;20991;-85
2021/10/23 05:43:18;;;;;;;66.17;26.60;;;;;;;12.61;100.00;100946.89;1747679;81;21780;-81
2021/10/23 05:45:44;;;;;;;67.67;27.95;;;;;;;12.67;100.00;100941.78;1751064;82;20889;-84
2021/10/23 05:48:10;;;;;;;90.12;30.72;;;;;;;12.73;100.00;100958.84;1759272;81;20894;-83
2021/10/23 05:50:36;;;;;;;85.60;31.20;;;;;;;12.80;100.00;100961.32;1751075;80;21005;-86
2021/10/23 05:53:01;;;;;;;75.12;29.63;;;;;;;12.91;100.00;100962.44;1746327;82;21649;-84
2021/10/23 05:55:27;;;;;;;71.15;26.60;;;;;;;13.02;100.00;100970.02;1751147;82;21133;-81
2021/10/23 05:57:53;;;;;;;60.45;24.92;;;;;;;13.12;100.00;100970.06;1719954;81;21144;-88
2021/10/23 06:00:19;;;;;;;56.73;23.40;;;;;;;13.19;100.00;100969.25;1747323;82;20981;-82
2021/10/23 06:02:46;;;;;;;55.55;23.27;;;;;;;13.28;100.00;100961.45;1760553;81;20969;-82
2021/10/23 06:05:13;;;;;;;56.53;23.45;;;;;;;13.37;100.00;100955.77;1736803;81;21731;-82
2021/10/23 06:07:42;;;;;;;53.13;23.25;;;;;;;13.48;100.00;100962.02;1754209;81;21526;-85
2021/10/23 06:10:11;;;;;;;55.73;22.60;;;;;;;13.57;100.00;100967.70;1754299;81;21017;-83
2021/10/23 06:12:38;;;;;;;58.55;24.32;;;;;;;13.63;100.00;100962.56;1754302;81;21167;-85
2021/10/23 06:15:06;;;;;;;58.05;23.42;;;;;;;13.66;100.00;100953.89;1754435;81;20974;-85
2021/10/23 06:17:40;;;;;;;62.73;24.15;;;;;;;13.69;100.00;100962.83;1753793;81;21009;-86
2021/10/23 06:20:08;;;;;;;62.80;24.12;;;;;;;13.75;100.00;100958.22;1751353;82;20996;-84
2021/10/23 06:22:34;;;;;;;54.33;22.82;;;;;;;13.81;100.00;100959.30;1751015;82;21000;-84
2021/10/23 06:25:01;;;;;;;52.98;23.18;;;;;;;13.82;100.00;100971.77;1751269;82;20948;-86
2021/10/23 06:27:27;;;;;;;55.05;23.50;;;;;;;13.84;100.00;100979.06;1751222;80;21161;-81
2021/10/23 06:29:52;;;;;;;65.75;25.50;;;;;;;13.84;100.00;100992.61;1751440;81;21095;-84
2021/10/23 06:32:18;;;;;;;63.23;25.27;;;;;;;13.86;100.00;100981.52;1751399;81;21079;-82
2021/10/23 06:34:44;;;;;;;76.87;26.45;;;;;;;13.90;100.00;100989.36;1751287;82;21092;-85
2021/10/23 06:37:10;;;;;;;63.33;24.60;;;;;;;13.92;100.00;100995.88;1753570;81;20890;-85
2021/10/23 06:39:37;;;;;;;59.58;23.65;;;;;;;13.91;100.00;101001.81;1756245;81;20976;-85
2021/10/23 06:42:04;;;;;;;63.40;25.50;;;;;;;13.93;100.00;100983.94;1756288;80;21057;-86
2021/10/23 06:44:30;;;;;;;64.35;25.32;;;;;;;13.96;100.00;100983.39;1756238;81;21259;-86
2021/10/23 06:46:56;;;;;;;64.85;24.52;;;;;;;13.87;100.00;100983.13;1756330;81;21079;-84
2021/10/23 06:49:22;;;;;;;63.33;24.27;;;;;;;13.96;100.00;100980.14;1754229;81;21131;-86
2021/10/23 06:51:48;;;;;;;65.50;24.10;;;;;;;13.93;100.00;100985.30;1754292;81;20959;-85
2021/10/23 06:54:14;;;;;;;55.70;23.47;;;;;;;13.93;100.00;100963.63;1756494;81;21765;-87
2021/10/23 06:56:40;;;;;;;61.95;24.55;;;;;;;13.91;100.00;100966.59;1756084;81;21898;-85
2021/10/23 06:59:06;;;;;;;63.80;24.32;;;;;;;13.91;100.00;100974.72;1752117;80;20883;-85
2021/10/23 07:01:46;;;;;;;61.50;24.80;;;;;;;13.96;100.00;100964.42;1750653;80;21020;-88
2021/10/23 07:04:20;;;;;;;61.53;23.87;;;;;;;13.99;100.00;100960.62;1676827;85;21528;-86
2021/10/23 07:06:48;;;;;;;66.15;26.65;;;;;;;14.05;100.00;100970.37;1465346;95;21257;-86
2021/10/23 07:09:16;;;;;;;64.92;26.12;;;;;;;14.11;100.00;100952.20;1468034;95;21114;-85
2021/10/23 07:11:42;;;;;;;63.00;24.72;;;;;;;14.21;100.00;100960.33;1465874;96;21257;-85
2021/10/23 07:14:07;;;;;;;57.67;24.72;;;;;;;14.33;100.00;100965.45;1470483;95;21728;-84
2021/10/23 07:16:33;;;;;;;57.00;23.98;;;;;;;14.46;100.00;100968.11;1468012;95;21173;-86
2021/10/23 07:18:59;;;;;;;61.02;24.50;;;;;;;14.59;100.00;100975.70;1484629;96;20970;-84
2021/10/23 07:21:25;;;;;;;63.42;24.85;;;;;;;14.75;100.00;100956.09;1484526;95;21734;-85
2021/10/23 07:23:53;;;;;;;57.67;24.67;;;;;;;14.90;100.00;100974.19;1484553;95;21071;-86
2021/10/23 07:26:21;;;;;;;61.70;23.27;;;;;;;15.05;100.00;100976.02;1484491;95;21202;-85
2021/10/23 07:28:47;;;;;;;62.65;25.52;;;;;;;15.16;100.00;100968.88;1491087;96;21125;-84
2021/10/23 07:31:13;;;;;;;58.30;23.95;;;;;;;15.27;100.00;100965.56;1491342;96;21082;-86
2021/10/23 07:33:39;;;;;;;56.25;23.95;;;;;;;15.37;100.00;100966.03;1491252;96;21199;-92
2021/10/23 07:36:05;;;;;;;58.80;22.52;;;;;;;15.48;100.00;100952.64;1488154;96;21049;-86
2021/10/23 07:38:31;;;;;;;80.15;30.72;;;;;;;15.60;100.00;100959.88;1479615;96;22124;-87
2021/10/23 07:40:58;;;;;;;84.03;31.00;;;;;;;15.64;100.00;100970.42;1492058;93;21027;-83
2021/10/23 07:43:57;;;;;;;71.87;27.17;;;;;;;15.64;100.00;100961.47;1523888;93;21161;-85
2021/10/23 07:46:26;;;;;;;62.65;25.35;;;;;;;15.64;100.00;100961.47;1516173;93;21370;-84
2021/10/23 07:48:51;;;;;;;59.18;24.00;;;;;;;15.55;100.00;100965.89;1515945;93;21078;-84
2021/10/23 07:51:18;;;;;;;58.75;23.98;;;;;;;15.43;100.00;100943.17;1605795;87;21081;-82
2021/10/23 07:53:44;;;;;;;54.27;24.02;;;;;;;15.49;100.00;100969.75;1638654;87;21625;-84
2021/10/23 07:56:10;;;;;;;57.40;23.70;;;;;;;15.48;100.00;100965.42;1639066;87;21098;-84
2021/10/23 07:58:36;;;;;;;53.25;22.30;;;;;;;15.57;100.00;100975.39;1639161;87;21717;-85
2021/10/23 08:01:03;;;;;;;54.00;22.42;;;;;;;15.65;100.00;100972.63;1646980;86;20962;-84
2021/10/23 08:03:29;;;;;;;50.05;21.62;;;;;;;15.72;100.00;100977.75;1653827;86;21444;-85
2021/10/23 08:05:55;;;;;;;60.63;24.20;;;;;;;15.74;100.00;100995.40;1653896;86;20923;-82
2021/10/23 08:08:20;;;;;;;57.03;22.25;;;;;;;15.64;100.00;100996.79;1654367;86;20919;-83
2021/10/23 08:10:46;;;;;;;62.78;23.85;;;;;;;15.55;100.00;101008.80;1654092;86;21974;-82
2021/10/23 08:13:12;;;;;;;56.40;22.70;;;;;;;15.50;100.00;101013.47;1653914;86;21125;-83
2021/10/23 08:15:38;;;;;;;57.23;21.25;;;;;;;15.48;100.00;101017.03;1653895;86;20875;-84
2021/10/23 08:18:04;;;;;;;57.70;22.95;;;;;;;15.46;100.00;101024.09;1653990;86;21035;-84
2021/10/23 08:20:32;;;;;;;55.70;23.10;;;;;;;15.49;100.00;101017.28;1654010;86;20915;-84
2021/10/23 08:23:00;;;;;;;58.68;23.38;;;;;;;15.56;100.00;101019.95;1662676;85;21189;-83
2021/10/23 08:25:26;;;;;;;61.20;22.17;;;;;;;15.61;100.00;101013.66;1671747;85;21018;-83
2021/10/23 08:27:52;;;;;;;66.35;24.57;;;;;;;15.70;100.00;101011.18;1671624;85;20976;-84
2021/10/23 08:30:19;;;;;;;68.78;24.45;;;;;;;15.73;100.00;101005.98;1670351;85;20880;-83
2021/10/23 08:32:46;;;;;;;65.35;24.43;;;;;;;15.83;100.00;100997.77;1712766;83;21058;-85
2021/10/23 08:35:14;;;;;;;59.90;23.05;;;;;;;15.97;100.00;100995.20;1726517;82;21777;-84
2021/10/23 08:37:41;;;;;;;65.97;24.23;;;;;;;16.05;100.00;100985.59;1726461;82;21051;-86
2021/10/23 08:40:11;;;;;;;60.15;22.10;;;;;;;16.14;100.00;100985.23;1726717;82;21583;-86
2021/10/23 08:42:37;;;;;;;59.20;23.42;;;;;;;16.23;100.00;100979.98;1726694;83;21030;-84
2021/10/23 08:45:09;;;;;;;59.23;22.95;;;;;;;16.29;100.00;100967.39;1726893;82;21099;-84
2021/10/23 08:47:37;;;;;;;61.73;22.85;;;;;;;16.17;100.00;100939.78;1726754;83;21119;-84
2021/10/23 08:50:07;;;;;;;67.75;24.57;;;;;;;16.33;100.00;100977.16;1726362;83;20988;-84
2021/10/23 08:52:33;;;;;;;56.45;23.25;;;;;;;16.35;100.00;100980.38;1726642;83;21066;-84
2021/10/23 08:54:59;;;;;;;57.62;21.15;;;;;;;16.25;100.00;100971.80;1734818;82;21032;-84
2021/10/23 08:57:28;;;;;;;56.50;21.05;;;;;;;16.32;100.00;100968.20;1726674;83;21007;-89
2021/10/23 09:00:01;;;;;;;60.63;23.47;;;;;;;16.57;100.00;100988.84;1726475;82;21240;-87
2021/10/23 09:02:28;;;;;;;61.95;22.07;;;;;;;16.57;100.00;100988.84;1726596;83;21007;-85
2021/10/23 09:04:56;;;;;;;67.87;24.43;;;;;;;16.65;100.00;100991.48;1723894;81;21016;-85
2021/10/23 09:07:23;;;;;;;58.17;23.35;;;;;;;16.73;100.00;100998.18;1726638;82;20940;-85
2021/10/23 09:09:59;;;;;;;51.25;19.50;;;;;;;16.89;100.00;100998.29;1726450;82;21035;-84
2021/10/23 09:12:29;;;;;;;48.95;20.20;;;;;;;17.00;100.00;100988.05;1726683;82;21146;-85
2021/10/23 09:15:12;;;;;;;51.30;19.17;;;;;;;17.09;100.00;100994.49;1711069;83;21405;-84
2021/10/23 09:17:41;;;;;;;48.33;19.00;;;;;;;17.20;100.00;100987.77;1711485;83;20999;-85
2021/10/23 09:20:16;;;;;;;53.20;20.00;;;;;;;17.27;100.00;100992.06;1711474;83;21031;-83
2021/10/23 09:22:45;;;;;;;46.28;20.10;;;;;;;17.25;100.00;100989.06;1711168;83;21035;-86
2021/10/23 09:25:35;;;;;;;56.35;22.42;;;;;;;17.32;100.00;100991.41;1711534;83;21629;-85
2021/10/23 09:28:13;;;;;;;58.28;21.77;;;;;;;17.40;100.00;100994.03;1710900;83;21616;-85
2021/10/23 09:30:47;;;;;;;67.25;24.47;;;;;;;17.44;100.00;100977.34;1711370;83;21050;-86
2021/10/23 09:33:20;;;;;;;62.55;23.67;;;;;;;17.59;100.00;100981.73;1711579;83;21031;-83
2021/10/23 09:35:56;;;;;;;55.83;22.37;;;;;;;17.65;100.00;100990.92;1687752;83;21074;-85
2021/10/23 09:38:25;;;;;;;63.13;22.50;;;;;;;17.78;100.00;100995.38;1708907;83;21191;-85
2021/10/23 09:40:55;;;;;;;56.30;21.07;;;;;;;17.83;100.00;100997.47;1711074;83;21464;-85
2021/10/23 09:43:28;;;;;;;51.33;19.65;;;;;;;17.87;100.00;100998.47;1711078;83;21158;-85
2021/10/23 09:46:00;;;;;;;;;;;;;;;17.96;100.00;100994.52;1713551;83;21125;-84
2021/10/23 09:48:52;;;;;;;46.08;18.07;;;;;;;18.14;100.00;100997.72;1710710;83;20450;-85
2021/10/23 09:51:31;;;;;;;46.98;18.90;;;;;;;18.49;100.00;100994.06;1687015;83;21114;-86
2021/10/23 09:54:01;;;;;;;61.15;19.37;;;;;;;18.75;99.00;100988.94;1711099;83;21486;-85
2021/10/23 09:56:34;;;;;;;51.20;19.30;;;;;;;18.86;96.53;100991.47;1710819;83;21126;-85
2021/10/23 09:59:02;;;;;;;;;;;;;;;18.95;92.81;100998.63;1713689;83;21477;-86
2021/10/23 10:01:35;;;;;;;39.33;17.12;;;;;;;18.90;86.18;100997.92;1707218;83;20220;-83
2021/10/23 10:04:08;;;;;;;42.73;16.27;;;;;;;18.72;83.04;101001.00;1711121;83;21429;-85
2021/10/23 10:06:47;;;;;;;41.35;14.93;;;;;;;18.56;79.97;100998.58;1715908;83;21016;-85
2021/10/23 10:09:20;;;;;;;41.70;15.85;;;;;;;18.38;79.18;100996.20;1715813;83;21086;-85
2021/10/23 10:11:48;;;;;;;44.77;13.18;;;;;;;18.25;81.53;100996.98;1713656;83;21018;-85
2021/10/23 10:14:24;;;;;;;43.92;13.08;;;;;;;18.23;77.68;101005.22;1711341;83;20987;-85
2021/10/23 10:16:50;;;;;;;34.60;12.25;;;;;;;18.20;76.19;101004.45;1710806;83;21047;-84
2021/10/23 10:19:19;;;;;;;30.20;11.08;;;;;;;18.09;73.05;101003.30;1710898;83;21040;-85
2021/10/23 10:21:47;;;;;;;36.95;11.38;;;;;;;18.04;69.19;100999.84;1711028;83;21082;-85
2021/10/23 10:24:32;;;;;;;32.00;11.78;;;;;;;18.01;72.81;100993.63;1710982;83;21640;-85
2021/10/23 10:27:05;;;;;;;41.80;12.18;;;;;;;18.02;67.45;100997.95;1687126;85;20985;-85
2021/10/23 10:29:57;;;;;;;36.60;12.30;;;;;;;17.90;67.23;100992.98;1687354;85;21093;-84
2021/10/23 10:32:41;;;;;;;32.23;11.93;;;;;;;17.89;68.34;100995.47;1631047;86;21093;-84
2021/10/23 10:35:25;;;;;;;33.78;12.00;;;;;;;17.84;65.84;100992.26;1629805;86;21133;-89
2021/10/23 10:43:08;;;;;;;34.92;10.98;;;;;;;17.76;64.36;100993.46;1600404;89;20963;-84
2021/10/23 10:46:01;;;;;;;39.33;11.80;;;;;;;17.74;62.89;100989.69;1610595;88;21565;-84
2021/10/23 10:48:34;;;;;;;32.45;11.80;;;;;;;17.80;64.57;100987.72;1624761;88;21485;-86
2021/10/23 10:51:14;;;;;;;30.15;11.05;;;;;;;17.87;65.31;100997.11;1616275;88;21572;-91
2021/10/23 10:53:55;;;;;;;28.40;11.88;;;;;;;17.94;65.55;101010.35;1610230;88;21362;-87
2021/10/23 10:56:21;;;;;;;30.68;10.53;;;;;;;17.92;62.85;101005.22;1615212;88;21980;-86
2021/10/23 10:58:57;;;;;;;29.92;11.53;;;;;;;17.83;61.85;101004.84;1613536;88;20917;-86
2021/10/23 11:01:30;;;;;;;31.50;11.20;;;;;;;17.84;64.29;101004.53;1614387;88;21122;-87
2021/10/23 11:04:11;;;;;;;29.45;11.18;;;;;;;17.86;61.30;100998.23;1615535;88;20998;-90
2021/10/23 11:06:49;;;;;;;26.95;8.48;;;;;;;17.81;60.92;101023.41;1613968;88;21158;-83
2021/10/23 11:09:22;;;;;;;20.55;7.85;;;;;;;17.74;58.84;101036.59;1610531;88;21545;-85
2021/10/23 11:12:00;;;;;;;22.27;8.40;;;;;;;17.67;58.33;101021.39;1614180;88;21110;-83
2021/10/23 11:14:37;;;;;;;29.52;9.05;;;;;;;17.66;58.11;101021.15;1614436;88;21694;-82